Terminal Aerodrome Forecast
Issued by NWS Newport/Morehead City, NC

Home | Current Version | Previous Version | Graphics & Text | Print | Product List | Glossary On
Versions: 1 2 3 4 5 6 7 8 9 10 11 12 13
000
FTUS42 KMHX 022337
TAFEWN
TAF
KEWN 022337Z 0300/0324 VRB03KT P6SM FEW070
     FM031000 VRB02KT 5SM BR SKC
     FM031200 27005KT P6SM FEW060=

USA.gov is the U.S. government's official web portal to all federal, state and local government web resources and services.